createdAt,value
2023-03-17T00:01:55.181Z,7.40
2023-03-17T00:04:24.315Z,7.40
2023-03-17T00:06:52.861Z,7.40
2023-03-17T00:09:22.394Z,7.50
2023-03-17T00:11:50.267Z,7.40
2023-03-17T00:14:18.948Z,7.40
2023-03-17T00:16:52.811Z,7.40
2023-03-17T00:19:33.653Z,7.40
2023-03-17T00:22:01.724Z,7.50
2023-03-17T00:24:29.838Z,7.50
2023-03-17T00:26:57.304Z,7.50
2023-03-17T00:29:25.561Z,7.50
2023-03-17T00:31:53.596Z,7.40
2023-03-17T00:34:23.421Z,7.40
2023-03-17T00:36:51.894Z,7.50
2023-03-17T00:39:19.741Z,7.50
2023-03-17T00:41:49.883Z,7.50
2023-03-17T00:44:17.487Z,7.50
2023-03-17T00:46:46.519Z,7.50
2023-03-17T00:49:22.103Z,7.50
2023-03-17T00:51:50.197Z,7.50
2023-03-17T00:54:20.651Z,7.50
2023-03-17T00:56:49.985Z,7.40
2023-03-17T00:59:29.788Z,7.40
2023-03-17T01:01:58.098Z,7.40
2023-03-17T01:04:25.694Z,7.40
2023-03-17T01:06:53.267Z,7.40
2023-03-17T01:09:24.194Z,7.40
2023-03-17T01:11:51.453Z,7.30
2023-03-17T01:14:18.741Z,7.30
2023-03-17T01:16:47.727Z,7.30
2023-03-17T01:19:15.404Z,7.30
2023-03-17T01:21:43.421Z,7.30
2023-03-17T01:24:11.604Z,7.30
2023-03-17T01:26:40.503Z,7.30
2023-03-17T01:29:08.444Z,7.30
2023-03-17T01:31:36.343Z,7.40
2023-03-17T01:34:06.321Z,7.30
2023-03-17T01:36:34.380Z,7.30
2023-03-17T01:39:01.846Z,7.30
2023-03-17T01:41:29.993Z,7.30
2023-03-17T01:43:57.557Z,7.40
2023-03-17T01:46:29.366Z,7.40
2023-03-17T01:49:35.458Z,7.30
2023-03-17T01:52:12.671Z,7.30
2023-03-17T01:54:53.764Z,7.30
2023-03-17T01:57:41.704Z,7.30
2023-03-17T02:00:14.454Z,7.30
2023-03-17T02:02:45.703Z,7.20
2023-03-17T02:05:17.986Z,7.20
2023-03-17T02:07:45.951Z,7.20
2023-03-17T02:10:17.499Z,7.20
2023-03-17T02:12:48.592Z,7.20
2023-03-17T02:15:16.010Z,7.20
2023-03-17T02:17:43.475Z,7.20
2023-03-17T02:20:33.515Z,7.10
2023-03-17T02:23:01.860Z,7.20
2023-03-17T02:25:30.796Z,7.20
2023-03-17T02:28:16.220Z,7.20
2023-03-17T02:30:44.837Z,7.20
2023-03-17T02:33:12.335Z,7.10
2023-03-17T02:35:41.501Z,7.10
2023-03-17T02:38:08.918Z,7.10
2023-03-17T02:40:36.068Z,7.20
2023-03-17T02:43:05.136Z,7.10
2023-03-17T02:45:32.308Z,7.10
2023-03-17T02:48:00.430Z,7.10
2023-03-17T02:50:29.382Z,7.10
2023-03-17T02:52:57.047Z,7.10
2023-03-17T02:55:24.123Z,7.10
2023-03-17T02:57:51.622Z,7.10
2023-03-17T03:00:19.630Z,7.00
2023-03-17T03:02:47.113Z,7.10
2023-03-17T03:05:14.878Z,7.10
2023-03-17T03:07:42.407Z,7.00
2023-03-17T03:10:10.826Z,7.00
2023-03-17T03:12:37.993Z,7.00
2023-03-17T03:15:07.023Z,7.10
2023-03-17T03:17:34.158Z,7.00
2023-03-17T03:20:01.418Z,7.00
2023-03-17T03:22:28.648Z,7.00
2023-03-17T03:24:55.818Z,7.00
2023-03-17T03:27:22.938Z,7.10
2023-03-17T03:29:50.035Z,7.00
2023-03-17T03:32:17.451Z,7.00
2023-03-17T03:34:44.551Z,7.00
2023-03-17T03:37:11.830Z,7.00
2023-03-17T03:39:39.204Z,7.00
2023-03-17T03:42:07.143Z,7.00
2023-03-17T03:44:34.467Z,7.10
2023-03-17T03:47:01.857Z,7.10
2023-03-17T03:49:29.256Z,7.10
2023-03-17T03:51:56.332Z,7.20
2023-03-17T03:54:23.636Z,7.20
2023-03-17T03:56:50.790Z,7.20
2023-03-17T03:59:18.642Z,7.10
2023-03-17T04:01:46.232Z,7.10
2023-03-17T04:04:13.692Z,7.10
2023-03-17T04:06:40.873Z,7.10
2023-03-17T04:09:09.323Z,7.10
2023-03-17T04:11:36.806Z,7.00
2023-03-17T04:14:04.309Z,7.00
2023-03-17T04:16:31.895Z,7.00
2023-03-17T04:18:59.342Z,7.10
2023-03-17T04:21:26.568Z,7.10
2023-03-17T04:23:53.862Z,7.00
2023-03-17T04:26:23.117Z,7.10
2023-03-17T04:28:50.467Z,7.10
2023-03-17T04:31:17.644Z,7.10
2023-03-17T04:33:44.975Z,7.00
2023-03-17T04:36:23.204Z,7.10
2023-03-17T04:38:50.864Z,7.00
2023-03-17T04:41:18.407Z,7.00
2023-03-17T04:43:46.253Z,7.00
2023-03-17T04:46:13.994Z,7.00
2023-03-17T04:48:41.487Z,7.00
2023-03-17T04:51:11.559Z,7.00
2023-03-17T04:53:39.214Z,7.00
2023-03-17T04:56:06.784Z,6.90
2023-03-17T04:58:33.935Z,7.00
2023-03-17T05:01:02.510Z,7.00
2023-03-17T05:03:31.078Z,7.00
2023-03-17T05:05:59.219Z,7.00
2023-03-17T05:08:28.582Z,7.00
2023-03-17T05:10:57.319Z,7.00
2023-03-17T05:13:26.314Z,7.00
2023-03-17T05:15:55.708Z,7.00
2023-03-17T05:18:25.569Z,7.00
2023-03-17T05:20:53.170Z,7.00
2023-03-17T05:23:20.827Z,7.10
2023-03-17T05:25:48.865Z,7.10
2023-03-17T05:28:16.835Z,7.10
2023-03-17T05:30:44.365Z,7.10
2023-03-17T05:33:11.910Z,7.00
2023-03-17T05:35:39.218Z,7.10
2023-03-17T05:38:08.740Z,7.00
2023-03-17T05:40:37.027Z,7.00
2023-03-17T05:43:05.868Z,7.00
2023-03-17T05:45:33.445Z,7.00
2023-03-17T05:48:00.887Z,7.00
2023-03-17T05:50:28.217Z,7.00
2023-03-17T05:52:55.491Z,7.00
2023-03-17T05:55:22.815Z,7.00
2023-03-17T05:57:49.940Z,7.00
2023-03-17T06:00:18.856Z,7.00
2023-03-17T06:02:46.102Z,7.10
2023-03-17T06:05:13.368Z,7.10
2023-03-17T06:07:53.098Z,7.10
2023-03-17T06:10:24.468Z,7.20
2023-03-17T06:12:51.922Z,7.20
2023-03-17T06:15:19.985Z,7.30
2023-03-17T06:17:47.115Z,7.30
2023-03-17T06:20:15.027Z,7.30
2023-03-17T06:23:00.466Z,7.40
2023-03-17T06:25:30.916Z,7.40
2023-03-17T06:27:58.380Z,7.50
2023-03-17T06:30:25.590Z,7.60
2023-03-17T06:32:52.744Z,7.60
2023-03-17T06:35:20.087Z,7.70
2023-03-17T06:37:47.895Z,7.70
2023-03-17T06:40:16.287Z,7.80
2023-03-17T06:42:43.580Z,7.90
2023-03-17T06:45:12.070Z,7.90
2023-03-17T06:47:39.775Z,7.90
2023-03-17T06:50:12.313Z,8.00
2023-03-17T06:52:40.962Z,8.00
2023-03-17T06:55:09.312Z,8.00
2023-03-17T06:57:37.467Z,8.00
2023-03-17T07:00:06.728Z,8.00
2023-03-17T07:02:34.461Z,8.10
2023-03-17T07:05:02.364Z,8.10
2023-03-17T07:07:29.704Z,8.10
2023-03-17T07:09:56.830Z,8.10
2023-03-17T07:12:24.199Z,8.20
2023-03-17T07:14:52.157Z,8.20
2023-03-17T07:17:19.728Z,8.30
2023-03-17T07:19:47.070Z,8.30
2023-03-17T07:22:14.394Z,8.40
2023-03-17T07:24:43.226Z,8.40
2023-03-17T07:27:11.152Z,8.50
2023-03-17T07:29:39.196Z,8.50
2023-03-17T07:32:08.254Z,8.60
2023-03-17T07:34:36.598Z,8.60
2023-03-17T07:37:05.262Z,8.60
2023-03-17T07:39:33.008Z,8.60
2023-03-17T07:42:00.333Z,8.70
2023-03-17T07:44:28.880Z,8.70
2023-03-17T07:46:56.662Z,8.80
2023-03-17T07:49:40.115Z,8.80
2023-03-17T07:52:10.408Z,8.90
2023-03-17T07:54:37.877Z,8.90
2023-03-17T07:57:06.443Z,9.00
2023-03-17T07:59:34.040Z,9.10
2023-03-17T08:02:01.562Z,9.20
2023-03-17T08:04:28.958Z,9.40
2023-03-17T08:06:57.674Z,9.50
2023-03-17T08:09:25.765Z,9.50
2023-03-17T08:11:53.022Z,9.70
2023-03-17T08:14:20.532Z,9.70
2023-03-17T08:16:48.243Z,9.70
2023-03-17T08:19:16.326Z,9.80
2023-03-17T08:21:43.569Z,9.80
2023-03-17T08:24:10.983Z,9.80
2023-03-17T08:26:38.174Z,9.90
2023-03-17T08:29:05.419Z,9.90
2023-03-17T08:31:34.023Z,10.00
2023-03-17T08:34:02.836Z,10.10
2023-03-17T08:36:30.677Z,10.30
2023-03-17T08:38:57.944Z,10.40
2023-03-17T08:41:27.482Z,10.50
2023-03-17T08:43:55.433Z,10.60
2023-03-17T08:46:29.512Z,10.70
2023-03-17T08:48:58.900Z,10.80
2023-03-17T08:51:30.869Z,10.80
2023-03-17T08:53:59.717Z,10.90
2023-03-17T08:56:27.582Z,10.90
2023-03-17T08:58:55.893Z,10.90
2023-03-17T09:01:25.043Z,11.00
2023-03-17T09:03:55.135Z,11.10
2023-03-17T09:06:23.914Z,11.10
2023-03-17T09:08:55.490Z,11.20
2023-03-17T09:11:29.844Z,11.40
2023-03-17T09:13:57.268Z,11.50
2023-03-17T09:16:25.382Z,11.50
2023-03-17T09:18:53.345Z,11.70
2023-03-17T09:21:21.456Z,11.80
2023-03-17T09:23:48.693Z,11.90
2023-03-17T09:26:16.376Z,12.10
2023-03-17T09:28:44.771Z,12.30
2023-03-17T09:31:13.007Z,12.60
2023-03-17T09:33:41.637Z,12.90
2023-03-17T09:36:10.978Z,13.00
2023-03-17T09:38:39.008Z,13.20
2023-03-17T09:41:45.725Z,13.40
2023-03-17T09:44:28.830Z,13.40
2023-03-17T09:47:28.441Z,13.50
2023-03-17T09:50:05.122Z,13.40
2023-03-17T09:52:35.143Z,13.60
2023-03-17T09:55:07.407Z,13.60
2023-03-17T09:57:40.383Z,13.70
2023-03-17T10:00:23.124Z,13.70
2023-03-17T10:02:50.226Z,13.70
2023-03-17T10:05:22.896Z,13.70
2023-03-17T10:08:06.340Z,14.10
2023-03-17T10:11:14.984Z,14.30
2023-03-17T10:14:28.708Z,14.50
2023-03-17T10:17:10.942Z,14.50
2023-03-17T10:20:05.030Z,14.50
2023-03-17T10:22:46.320Z,14.60
2023-03-17T10:25:29.468Z,14.70
2023-03-17T10:28:09.203Z,14.80
2023-03-17T10:30:37.172Z,14.80
2023-03-17T10:33:09.165Z,15.10
2023-03-17T10:35:39.468Z,15.10
2023-03-17T10:38:22.581Z,15.20
2023-03-17T10:41:03.451Z,15.10
2023-03-17T10:43:44.665Z,15.20
2023-03-17T10:46:25.752Z,15.20
2023-03-17T10:49:19.981Z,15.30
2023-03-17T10:51:47.322Z,15.40
2023-03-17T10:54:19.603Z,15.40
2023-03-17T10:56:50.088Z,15.20
2023-03-17T10:59:28.760Z,15.20
2023-03-17T11:02:02.259Z,15.10
2023-03-17T11:04:44.192Z,15.20
2023-03-17T11:07:22.139Z,15.10
2023-03-17T11:09:58.510Z,15.20
2023-03-17T11:12:30.034Z,15.20
2023-03-17T11:15:03.800Z,15.30
2023-03-17T11:17:58.871Z,15.30
2023-03-17T11:21:05.819Z,15.50
2023-03-17T11:23:47.435Z,15.60
2023-03-17T11:26:38.312Z,15.90
2023-03-17T11:29:47.881Z,16.10
2023-03-17T11:33:36.280Z,16.30
2023-03-17T11:36:30.577Z,16.50
2023-03-17T11:39:01.634Z,16.50
2023-03-17T11:41:41.787Z,16.60
2023-03-17T11:44:18.712Z,16.70
2023-03-17T11:46:52.225Z,16.90
2023-03-17T11:49:41.043Z,17.00
2023-03-17T11:52:28.672Z,17.30
2023-03-17T11:55:25.773Z,17.60
2023-03-17T11:58:03.716Z,17.70
2023-03-17T12:00:50.814Z,17.70
2023-03-17T12:03:54.078Z,17.80
2023-03-17T12:06:35.945Z,17.40
2023-03-17T12:09:35.714Z,17.40
2023-03-17T12:12:04.610Z,17.40
2023-03-17T12:14:48.821Z,17.30
2023-03-17T12:17:37.566Z,17.50
2023-03-17T12:20:44.069Z,17.40
2023-03-17T12:23:49.553Z,17.40
2023-03-17T12:26:57.626Z,17.40
2023-03-17T12:29:59.119Z,17.30
2023-03-17T12:32:46.887Z,17.50
2023-03-17T12:35:34.940Z,17.40
2023-03-17T12:38:16.650Z,17.30
2023-03-17T12:41:26.017Z,17.40
2023-03-17T12:44:24.007Z,17.40
2023-03-17T12:47:19.435Z,17.30
2023-03-17T12:50:19.961Z,17.30
2023-03-17T12:53:29.646Z,17.30
2023-03-17T12:56:09.402Z,17.10
2023-03-17T12:58:43.789Z,17.00
2023-03-17T13:01:32.330Z,17.00
2023-03-17T13:04:27.208Z,17.00
2023-03-17T13:07:12.926Z,17.00
2023-03-17T13:09:49.873Z,17.10
2023-03-17T13:12:42.126Z,17.20
2023-03-17T13:15:28.196Z,17.30
2023-03-17T13:18:47.086Z,17.40
2023-03-17T13:21:20.646Z,17.50
2023-03-17T13:23:59.181Z,17.50
2023-03-17T13:26:55.708Z,17.60
2023-03-17T13:29:32.648Z,17.60
2023-03-17T13:32:27.544Z,17.60
2023-03-17T13:35:17.302Z,17.80
2023-03-17T13:38:03.182Z,17.70
2023-03-17T13:40:39.222Z,17.80
2023-03-17T13:43:19.024Z,17.70
2023-03-17T13:45:48.710Z,17.60
2023-03-17T13:48:36.827Z,17.50
2023-03-17T13:51:33.182Z,17.60
2023-03-17T13:54:22.259Z,17.70
2023-03-17T13:56:52.923Z,17.50
2023-03-17T13:59:23.249Z,17.40
2023-03-17T14:02:16.867Z,17.40
2023-03-17T14:05:04.688Z,17.40
2023-03-17T14:07:52.966Z,17.30
2023-03-17T14:10:25.997Z,17.40
2023-03-17T14:13:24.742Z,17.60
2023-03-17T14:16:11.978Z,17.40
2023-03-17T14:18:45.766Z,17.20
2023-03-17T14:21:33.801Z,17.10
2023-03-17T14:24:19.041Z,16.90
2023-03-17T14:26:48.218Z,16.80
2023-03-17T14:29:19.289Z,16.70
2023-03-17T14:31:59.489Z,16.60
2023-03-17T14:34:26.806Z,16.70
2023-03-17T14:36:54.044Z,16.70
2023-03-17T14:39:26.094Z,16.60
2023-03-17T14:42:05.142Z,16.70
2023-03-17T14:44:41.762Z,16.70
2023-03-17T14:47:27.776Z,16.60
2023-03-17T14:49:55.444Z,16.60
2023-03-17T14:52:28.736Z,16.50
2023-03-17T14:54:59.217Z,16.50
2023-03-17T14:57:32.312Z,16.40
2023-03-17T15:00:34.471Z,16.40
2023-03-17T15:03:14.391Z,16.20
2023-03-17T15:05:45.349Z,16.20
2023-03-17T15:08:43.293Z,16.00
2023-03-17T15:11:22.798Z,16.00
2023-03-17T15:13:55.966Z,15.90
2023-03-17T15:16:34.303Z,15.90
2023-03-17T15:19:20.055Z,15.90
2023-03-17T15:21:47.740Z,15.80
2023-03-17T15:24:41.213Z,15.90
2023-03-17T15:27:18.677Z,15.90
2023-03-17T15:29:47.396Z,15.80
2023-03-17T15:32:23.889Z,15.80
2023-03-17T15:34:53.862Z,15.90
2023-03-17T15:37:32.850Z,15.90
2023-03-17T15:40:01.986Z,15.90
2023-03-17T15:42:36.092Z,15.90
2023-03-17T15:45:04.728Z,15.80
2023-03-17T15:47:36.832Z,15.80
2023-03-17T15:50:26.480Z,15.80
2023-03-17T15:52:55.704Z,15.80
2023-03-17T15:55:31.061Z,15.80
2023-03-17T15:57:59.116Z,15.80
2023-03-17T16:00:29.893Z,15.70
2023-03-17T16:03:02.686Z,15.70
2023-03-17T16:05:34.026Z,15.70
2023-03-17T16:08:01.538Z,15.70
2023-03-17T16:10:32.886Z,15.70
2023-03-17T16:13:00.626Z,15.60
2023-03-17T16:15:33.388Z,15.60
2023-03-17T16:18:08.368Z,15.50
2023-03-17T16:20:43.326Z,15.50
2023-03-17T16:23:27.608Z,15.40
2023-03-17T16:25:59.311Z,15.40
2023-03-17T16:28:32.778Z,15.40
2023-03-17T16:31:01.474Z,15.30
2023-03-17T16:33:33.518Z,15.20
2023-03-17T16:36:02.030Z,15.20
2023-03-17T16:38:32.616Z,15.10
2023-03-17T16:41:24.499Z,15.00
2023-03-17T16:43:58.738Z,15.00
2023-03-17T16:46:28.455Z,14.90
2023-03-17T16:48:56.279Z,14.80
2023-03-17T16:51:25.047Z,14.80
2023-03-17T16:53:52.395Z,14.70
2023-03-17T16:56:23.085Z,14.60
2023-03-17T16:58:50.341Z,14.50
2023-03-17T17:01:22.045Z,14.40
2023-03-17T17:03:49.680Z,14.40
2023-03-17T17:06:18.696Z,14.20
2023-03-17T17:08:48.702Z,14.20
2023-03-17T17:11:17.968Z,14.10
2023-03-17T17:13:48.279Z,14.00
2023-03-17T17:16:31.782Z,13.90
2023-03-17T17:18:59.525Z,13.90
2023-03-17T17:21:27.823Z,13.80
2023-03-17T17:23:56.784Z,13.80
2023-03-17T17:26:24.102Z,13.70
2023-03-17T17:28:51.368Z,13.70
2023-03-17T17:31:18.875Z,13.60
2023-03-17T17:33:46.045Z,13.60
2023-03-17T17:36:16.547Z,13.50
2023-03-17T17:38:44.394Z,13.40
2023-03-17T17:41:12.775Z,13.40
2023-03-17T17:43:40.859Z,13.30
2023-03-17T17:46:19.864Z,13.20
2023-03-17T17:48:47.739Z,13.20
2023-03-17T17:51:15.581Z,13.10
2023-03-17T17:53:42.893Z,13.00
2023-03-17T17:56:20.371Z,13.00
2023-03-17T17:58:47.886Z,13.00
2023-03-17T18:01:19.802Z,12.90
2023-03-17T18:03:47.408Z,12.90
2023-03-17T18:06:17.170Z,12.90
2023-03-17T18:08:44.950Z,12.80
2023-03-17T18:11:12.253Z,12.80
2023-03-17T18:13:40.167Z,12.70
2023-03-17T18:16:10.847Z,12.70
2023-03-17T18:18:40.720Z,12.70
2023-03-17T18:21:08.205Z,12.60
2023-03-17T18:23:36.498Z,12.60
2023-03-17T18:26:09.357Z,12.50
2023-03-17T18:28:36.721Z,12.50
2023-03-17T18:31:10.664Z,12.50
2023-03-17T18:33:40.749Z,12.40
2023-03-17T18:36:08.887Z,12.40
2023-03-17T18:38:36.616Z,12.40
2023-03-17T18:41:04.804Z,12.30
2023-03-17T18:43:32.090Z,12.30
2023-03-17T18:45:59.471Z,12.20
2023-03-17T18:48:26.677Z,12.20
2023-03-17T18:50:53.769Z,12.20
2023-03-17T18:53:22.218Z,12.20
2023-03-17T18:55:49.540Z,12.20
2023-03-17T18:58:16.652Z,12.10
2023-03-17T19:00:43.854Z,12.10
2023-03-17T19:03:11.179Z,12.10
2023-03-17T19:05:39.448Z,12.10
2023-03-17T19:08:07.620Z,12.10
2023-03-17T19:10:34.834Z,12.10
2023-03-17T19:13:02.354Z,12.10
2023-03-17T19:15:29.965Z,12.00
2023-03-17T19:17:57.211Z,12.00
2023-03-17T19:20:24.411Z,12.00
2023-03-17T19:22:53.302Z,11.90
2023-03-17T19:25:21.421Z,11.90
2023-03-17T19:27:48.842Z,11.90
2023-03-17T19:30:16.330Z,11.90
2023-03-17T19:32:43.818Z,11.80
2023-03-17T19:35:11.818Z,11.80
2023-03-17T19:37:39.092Z,11.80
2023-03-17T19:40:09.604Z,11.70
2023-03-17T19:42:37.144Z,11.70
2023-03-17T19:45:06.109Z,11.70
2023-03-17T19:47:33.265Z,11.70
2023-03-17T19:50:00.771Z,11.70
2023-03-17T19:52:27.934Z,11.60
2023-03-17T19:54:56.465Z,11.60
2023-03-17T19:57:24.322Z,11.60
2023-03-17T19:59:52.076Z,11.60
2023-03-17T20:02:20.607Z,11.50
2023-03-17T20:04:49.248Z,11.50
2023-03-17T20:07:16.592Z,11.50
2023-03-17T20:09:47.954Z,11.50
2023-03-17T20:12:15.824Z,11.50
2023-03-17T20:14:43.079Z,11.40
2023-03-17T20:17:10.235Z,11.40
2023-03-17T20:19:39.470Z,11.30
2023-03-17T20:22:07.416Z,11.30
2023-03-17T20:24:35.306Z,11.30
2023-03-17T20:27:03.876Z,11.30
2023-03-17T20:29:31.645Z,11.20
2023-03-17T20:31:58.957Z,11.20
2023-03-17T20:34:26.144Z,11.10
2023-03-17T20:36:53.241Z,11.10
2023-03-17T20:39:20.362Z,11.00
2023-03-17T20:41:51.611Z,10.90
2023-03-17T20:44:20.211Z,10.90
2023-03-17T20:46:47.763Z,10.80
2023-03-17T20:49:16.934Z,10.80
2023-03-17T20:51:44.786Z,10.80
2023-03-17T20:54:12.934Z,10.80
2023-03-17T20:56:40.071Z,10.70
2023-03-17T20:59:09.603Z,10.60
2023-03-17T21:01:38.674Z,10.60
2023-03-17T21:04:08.933Z,10.50
2023-03-17T21:06:37.492Z,10.50
2023-03-17T21:09:06.246Z,10.50
2023-03-17T21:11:33.780Z,10.50
2023-03-17T21:14:03.361Z,10.50
2023-03-17T21:16:30.960Z,10.50
2023-03-17T21:18:58.244Z,10.40
2023-03-17T21:21:25.834Z,10.40
2023-03-17T21:23:54.223Z,10.40
2023-03-17T21:26:21.399Z,10.40
2023-03-17T21:28:48.726Z,10.40
2023-03-17T21:31:17.341Z,10.50
2023-03-17T21:33:44.934Z,10.50
2023-03-17T21:36:12.302Z,10.50
2023-03-17T21:38:39.446Z,10.50
2023-03-17T21:41:33.177Z,10.60
2023-03-17T21:44:02.524Z,10.60
2023-03-17T21:46:31.707Z,10.70
2023-03-17T21:48:59.428Z,10.80
2023-03-17T21:51:27.361Z,10.80
2023-03-17T21:53:54.726Z,10.90
2023-03-17T21:56:22.143Z,11.00
2023-03-17T21:58:49.664Z,11.10
2023-03-17T22:01:19.098Z,11.20
2023-03-17T22:03:46.490Z,11.30
2023-03-17T22:06:14.987Z,11.40
2023-03-17T22:08:42.938Z,11.40
2023-03-17T22:11:13.711Z,11.60
2023-03-17T22:13:41.556Z,11.60
2023-03-17T22:16:10.511Z,11.60
2023-03-17T22:18:38.599Z,11.60
2023-03-17T22:21:06.919Z,11.70
2023-03-17T22:23:39.705Z,11.70
2023-03-17T22:26:13.355Z,11.70
2023-03-17T22:28:43.080Z,11.80
2023-03-17T22:31:19.026Z,11.80
2023-03-17T22:33:48.465Z,11.80
2023-03-17T22:36:16.339Z,11.80
2023-03-17T22:38:43.865Z,11.70
2023-03-17T22:41:20.642Z,11.80
2023-03-17T22:43:48.214Z,11.80
2023-03-17T22:46:16.752Z,11.80
2023-03-17T22:48:46.140Z,11.80
2023-03-17T22:51:17.487Z,11.80
2023-03-17T22:53:45.648Z,11.80
2023-03-17T22:56:15.708Z,11.80
2023-03-17T22:58:44.525Z,11.90
2023-03-17T23:01:13.673Z,11.90
2023-03-17T23:03:41.938Z,11.90
2023-03-17T23:06:11.447Z,12.00
2023-03-17T23:08:39.688Z,12.00
2023-03-17T23:11:14.608Z,12.00
2023-03-17T23:13:41.926Z,12.00
2023-03-17T23:16:09.868Z,11.90
2023-03-17T23:18:37.198Z,12.00
2023-03-17T23:21:06.863Z,12.00
2023-03-17T23:23:36.008Z,12.00
2023-03-17T23:26:03.424Z,12.00
2023-03-17T23:28:31.078Z,11.90
2023-03-17T23:30:58.373Z,11.90
2023-03-17T23:33:26.057Z,11.90
2023-03-17T23:35:53.305Z,11.90
2023-03-17T23:38:21.494Z,11.90
2023-03-17T23:40:50.228Z,11.90
2023-03-17T23:43:17.801Z,11.80
2023-03-17T23:45:45.537Z,11.80
2023-03-17T23:48:12.997Z,11.80
2023-03-17T23:50:41.321Z,11.80
2023-03-17T23:53:11.552Z,11.80
2023-03-17T23:55:38.902Z,11.80
2023-03-17T23:58:06.206Z,11.80
